createdAt,value
2023-01-07T00:01:51.053Z,11.27
2023-01-07T00:04:19.496Z,10.30
2023-01-07T00:06:52.615Z,8.93
2023-01-07T00:09:20.408Z,9.33
2023-01-07T00:11:48.143Z,9.87
2023-01-07T00:14:16.480Z,10.40
2023-01-07T00:16:44.765Z,8.87
2023-01-07T00:19:15.568Z,11.83
2023-01-07T00:21:43.784Z,9.90
2023-01-07T00:24:13.355Z,12.30
2023-01-07T00:26:41.833Z,11.03
2023-01-07T00:29:10.594Z,9.87
2023-01-07T00:31:41.012Z,10.20
2023-01-07T00:34:10.121Z,10.20
2023-01-07T00:36:41.385Z,11.03
2023-01-07T00:39:13.857Z,13.77
2023-01-07T00:42:01.910Z,10.43
2023-01-07T00:44:30.026Z,9.00
2023-01-07T00:46:58.185Z,10.00
2023-01-07T00:49:26.171Z,10.10
2023-01-07T00:51:54.369Z,8.83
2023-01-07T00:54:23.795Z,9.20
2023-01-07T00:56:51.574Z,8.70
2023-01-07T00:59:19.493Z,13.13
2023-01-07T01:01:47.502Z,9.00
2023-01-07T01:04:15.956Z,11.23
2023-01-07T01:06:43.743Z,10.07
2023-01-07T01:09:12.318Z,8.37
2023-01-07T01:11:41.826Z,8.73
2023-01-07T01:14:11.515Z,14.13
2023-01-07T01:16:39.521Z,9.30
2023-01-07T01:19:07.429Z,14.43
2023-01-07T01:21:35.177Z,9.43
2023-01-07T01:24:02.887Z,7.03
2023-01-07T01:26:30.644Z,8.20
2023-01-07T01:28:59.835Z,8.50
2023-01-07T01:31:27.713Z,9.40
2023-01-07T01:33:55.957Z,8.03
2023-01-07T01:36:24.051Z,7.50
2023-01-07T01:38:51.772Z,6.50
2023-01-07T01:41:19.670Z,9.73
2023-01-07T01:43:48.249Z,9.93
2023-01-07T01:46:21.690Z,9.03
2023-01-07T01:48:53.941Z,8.13
2023-01-07T01:51:26.038Z,8.63
2023-01-07T01:53:54.638Z,7.70
2023-01-07T01:56:27.654Z,8.90
2023-01-07T01:58:58.885Z,14.77
2023-01-07T02:01:28.358Z,12.80
2023-01-07T02:03:57.661Z,11.17
2023-01-07T02:06:28.338Z,11.00
2023-01-07T02:08:56.101Z,11.93
2023-01-07T02:11:34.898Z,7.43
2023-01-07T02:14:13.268Z,6.53
2023-01-07T02:16:51.879Z,11.00
2023-01-07T02:19:50.561Z,9.23
2023-01-07T02:22:39.321Z,9.60
2023-01-07T02:25:30.190Z,10.23
2023-01-07T02:28:29.324Z,7.57
2023-01-07T02:31:26.135Z,7.90
2023-01-07T02:34:02.424Z,7.83
2023-01-07T02:36:50.928Z,9.23
2023-01-07T02:39:39.383Z,11.00
2023-01-07T02:42:20.472Z,9.40
2023-01-07T02:44:57.244Z,8.67
2023-01-07T02:47:29.531Z,8.77
2023-01-07T02:49:58.725Z,10.73
2023-01-07T02:52:28.827Z,8.73
2023-01-07T02:55:04.415Z,12.03
2023-01-07T02:58:05.861Z,12.80
2023-01-07T03:00:54.227Z,49.67
2023-01-07T03:03:34.172Z,13.10
2023-01-07T03:06:16.006Z,9.30
2023-01-07T03:08:55.763Z,10.43
2023-01-07T03:11:27.217Z,12.37
2023-01-07T03:14:02.057Z,12.43
2023-01-07T03:16:35.412Z,14.10
2023-01-07T03:19:08.002Z,12.27
2023-01-07T03:21:39.180Z,11.10
2023-01-07T03:24:08.843Z,13.27
2023-01-07T03:26:41.163Z,11.73
2023-01-07T03:29:12.288Z,13.63
2023-01-07T03:31:48.522Z,14.13
2023-01-07T03:34:20.836Z,12.93
2023-01-07T03:36:53.860Z,13.53
2023-01-07T03:39:24.861Z,12.40
2023-01-07T03:42:10.645Z,15.77
2023-01-07T03:44:38.544Z,14.50
2023-01-07T03:47:06.920Z,15.23
2023-01-07T03:49:38.562Z,14.50
2023-01-07T03:52:07.951Z,13.73
2023-01-07T03:54:35.764Z,19.53
2023-01-07T03:57:03.527Z,14.43
2023-01-07T03:59:31.356Z,14.67
2023-01-07T04:01:59.385Z,13.80
2023-01-07T04:04:27.425Z,14.77
2023-01-07T04:06:55.290Z,16.13
2023-01-07T04:09:24.506Z,17.97
2023-01-07T04:11:52.336Z,19.33
2023-01-07T04:14:20.240Z,18.87
2023-01-07T04:16:51.012Z,17.43
2023-01-07T04:19:19.353Z,14.03
2023-01-07T04:21:47.214Z,11.67
2023-01-07T04:24:15.223Z,10.70
2023-01-07T04:26:44.279Z,12.13
2023-01-07T04:29:12.281Z,16.53
2023-01-07T04:31:40.120Z,11.47
2023-01-07T04:34:07.995Z,12.70
2023-01-07T04:36:35.781Z,11.77
2023-01-07T04:39:03.816Z,13.73
2023-01-07T04:41:31.539Z,14.87
2023-01-07T04:44:00.688Z,13.83
2023-01-07T04:46:28.515Z,12.27
2023-01-07T04:48:57.173Z,15.57
2023-01-07T04:51:25.138Z,12.63
2023-01-07T04:53:52.942Z,12.60
2023-01-07T04:56:20.680Z,12.83
2023-01-07T04:58:48.414Z,11.60
2023-01-07T05:01:17.952Z,14.57
2023-01-07T05:03:45.808Z,14.07
2023-01-07T05:06:13.531Z,14.30
2023-01-07T05:08:41.277Z,14.67
2023-01-07T05:11:08.944Z,14.93
2023-01-07T05:13:36.703Z,11.43
2023-01-07T05:16:04.736Z,13.43
2023-01-07T05:18:33.864Z,12.43
2023-01-07T05:21:01.616Z,13.37
2023-01-07T05:23:29.440Z,14.10
2023-01-07T05:25:57.229Z,12.13
2023-01-07T05:28:25.046Z,12.47
2023-01-07T05:30:52.889Z,13.83
2023-01-07T05:33:20.688Z,12.80
2023-01-07T05:35:50.105Z,11.60
2023-01-07T05:38:17.929Z,11.57
2023-01-07T05:40:49.727Z,11.27
2023-01-07T05:43:18.202Z,13.40
2023-01-07T05:45:46.732Z,12.10
2023-01-07T05:48:15.139Z,10.27
2023-01-07T05:50:43.575Z,11.50
2023-01-07T05:53:12.759Z,12.27
2023-01-07T05:55:40.840Z,11.07
2023-01-07T05:58:09.072Z,10.07
2023-01-07T06:00:37.617Z,14.43
2023-01-07T06:03:06.399Z,10.57
2023-01-07T06:05:34.427Z,12.13
2023-01-07T06:08:02.199Z,9.90
2023-01-07T06:10:31.323Z,10.97
2023-01-07T06:12:59.255Z,11.27
2023-01-07T06:15:27.101Z,10.87
2023-01-07T06:17:55.056Z,11.83
2023-01-07T06:20:22.875Z,10.50
2023-01-07T06:22:51.078Z,11.77
2023-01-07T06:25:19.137Z,12.00
2023-01-07T06:27:48.256Z,11.77
2023-01-07T06:30:15.981Z,9.93
2023-01-07T06:32:44.669Z,13.33
2023-01-07T06:35:13.334Z,9.33
2023-01-07T06:37:41.235Z,10.37
2023-01-07T06:40:10.111Z,10.27
2023-01-07T06:42:37.917Z,10.43
2023-01-07T06:45:08.102Z,9.33
2023-01-07T06:47:35.905Z,9.63
2023-01-07T06:50:04.067Z,11.23
2023-01-07T06:52:31.768Z,10.70
2023-01-07T06:54:59.637Z,9.10
2023-01-07T06:57:27.454Z,7.80
2023-01-07T06:59:55.251Z,12.40
2023-01-07T07:02:25.998Z,8.70
2023-01-07T07:04:54.425Z,8.63
2023-01-07T07:07:22.803Z,8.63
2023-01-07T07:09:51.081Z,7.73
2023-01-07T07:12:19.797Z,12.03
2023-01-07T07:14:47.563Z,9.70
2023-01-07T07:17:15.897Z,7.43
2023-01-07T07:19:45.249Z,9.80
2023-01-07T07:22:14.034Z,11.70
2023-01-07T07:24:41.782Z,7.83
2023-01-07T07:27:10.035Z,7.83
2023-01-07T07:29:38.009Z,8.33
2023-01-07T07:32:06.556Z,11.47
2023-01-07T07:34:36.001Z,7.80
2023-01-07T07:37:05.428Z,10.13
2023-01-07T07:39:33.760Z,7.60
2023-01-07T07:42:03.673Z,9.30
2023-01-07T07:44:31.805Z,6.60
2023-01-07T07:46:59.834Z,9.83
2023-01-07T07:49:27.605Z,8.20
2023-01-07T07:51:55.757Z,12.70
2023-01-07T07:54:25.366Z,19.00
2023-01-07T07:56:53.110Z,8.63
2023-01-07T07:59:20.970Z,9.33
2023-01-07T08:01:49.620Z,7.53
2023-01-07T08:04:17.785Z,9.90
2023-01-07T08:06:45.544Z,7.90
2023-01-07T08:09:13.710Z,7.73
2023-01-07T08:11:43.348Z,7.73
2023-01-07T08:14:11.608Z,6.63
2023-01-07T08:16:39.388Z,7.03
2023-01-07T08:19:07.378Z,7.27
2023-01-07T08:21:35.500Z,8.00
2023-01-07T08:24:03.385Z,8.43
2023-01-07T08:26:31.239Z,6.70
2023-01-07T08:29:00.802Z,6.57
2023-01-07T08:31:28.677Z,9.17
2023-01-07T08:33:56.583Z,5.30
2023-01-07T08:36:24.766Z,5.60
2023-01-07T08:38:53.505Z,5.63
2023-01-07T08:41:22.361Z,8.87
2023-01-07T08:43:50.487Z,7.33
2023-01-07T08:46:19.961Z,5.90
2023-01-07T08:48:47.799Z,5.03
2023-01-07T08:51:15.969Z,5.63
2023-01-07T08:53:44.001Z,6.33
2023-01-07T08:56:11.976Z,8.77
2023-01-07T08:58:39.905Z,5.17
2023-01-07T09:01:08.644Z,4.77
2023-01-07T09:03:39.322Z,8.90
2023-01-07T09:06:07.720Z,6.20
2023-01-07T09:08:35.953Z,6.57
2023-01-07T09:11:03.751Z,4.80
2023-01-07T09:13:31.693Z,4.50
2023-01-07T09:16:00.121Z,4.00
2023-01-07T09:18:28.381Z,6.17
2023-01-07T09:20:57.588Z,7.60
2023-01-07T09:23:27.810Z,3.87
2023-01-07T09:25:55.664Z,7.17
2023-01-07T09:28:23.630Z,6.30
2023-01-07T09:30:51.516Z,5.67
2023-01-07T09:33:19.641Z,5.93
2023-01-07T09:35:47.758Z,4.50
2023-01-07T09:38:17.571Z,5.30
2023-01-07T09:40:46.601Z,4.70
2023-01-07T09:43:19.768Z,5.27
2023-01-07T09:45:50.916Z,5.83
2023-01-07T09:48:26.151Z,4.63
2023-01-07T09:50:58.643Z,4.30
2023-01-07T09:53:32.519Z,4.73
2023-01-07T09:56:10.715Z,4.17
2023-01-07T09:58:48.614Z,4.13
2023-01-07T10:01:24.938Z,4.30
2023-01-07T10:04:07.814Z,4.30
2023-01-07T10:06:44.324Z,3.73
2023-01-07T10:09:25.080Z,3.73
2023-01-07T10:12:03.087Z,4.10
2023-01-07T10:15:06.449Z,6.77
2023-01-07T10:17:48.468Z,3.87
2023-01-07T10:20:25.784Z,4.70
2023-01-07T10:22:58.735Z,3.97
2023-01-07T10:25:33.269Z,5.97
2023-01-07T10:28:07.670Z,3.27
2023-01-07T10:30:41.828Z,4.03
2023-01-07T10:33:19.067Z,4.77
2023-01-07T10:35:49.326Z,3.60
2023-01-07T10:38:21.115Z,3.33
2023-01-07T10:40:58.354Z,4.00
2023-01-07T10:43:42.675Z,4.10
2023-01-07T10:46:23.827Z,7.33
2023-01-07T10:49:12.217Z,3.83
2023-01-07T10:52:01.256Z,3.23
2023-01-07T10:54:44.331Z,3.33
2023-01-07T10:57:18.925Z,4.30
2023-01-07T10:59:50.773Z,4.20
2023-01-07T11:02:21.805Z,3.83
2023-01-07T11:04:50.431Z,5.43
2023-01-07T11:07:29.727Z,4.67
2023-01-07T11:10:01.074Z,2.57
2023-01-07T11:12:36.882Z,4.63
2023-01-07T11:15:08.273Z,3.40
2023-01-07T11:17:42.226Z,5.83
2023-01-07T11:20:12.490Z,4.77
2023-01-07T11:22:40.788Z,2.80
2023-01-07T11:25:33.726Z,6.27
2023-01-07T11:28:07.130Z,4.00
2023-01-07T11:30:40.094Z,2.60
2023-01-07T11:33:08.634Z,2.60
2023-01-07T11:35:37.578Z,5.20
2023-01-07T11:38:29.078Z,4.70
2023-01-07T11:40:59.959Z,5.50
2023-01-07T11:43:34.239Z,2.53
2023-01-07T11:46:20.685Z,2.77
2023-01-07T11:48:53.632Z,2.80
2023-01-07T11:51:24.019Z,3.80
2023-01-07T11:53:58.772Z,3.97
2023-01-07T11:56:35.986Z,6.33
2023-01-07T11:59:27.114Z,2.80
2023-01-07T12:01:56.834Z,2.60
2023-01-07T12:04:29.624Z,3.67
2023-01-07T12:06:59.760Z,5.90
2023-01-07T12:09:39.617Z,2.83
2023-01-07T12:12:34.764Z,3.20
2023-01-07T12:15:06.004Z,3.47
2023-01-07T12:17:36.243Z,4.83
2023-01-07T12:20:40.211Z,6.23
2023-01-07T12:23:21.507Z,6.50
2023-01-07T12:25:59.826Z,5.83
2023-01-07T12:28:44.208Z,3.03
2023-01-07T12:31:27.447Z,4.30
2023-01-07T12:34:07.739Z,2.80
2023-01-07T12:36:46.547Z,3.50
2023-01-07T12:39:22.126Z,6.70
2023-01-07T12:42:00.562Z,2.57
2023-01-07T12:44:30.034Z,5.10
2023-01-07T12:47:32.107Z,5.27
2023-01-07T12:50:02.759Z,4.63
2023-01-07T12:52:38.801Z,2.67
2023-01-07T12:55:17.847Z,4.73
2023-01-07T12:57:57.810Z,2.03
2023-01-07T13:00:29.165Z,5.97
2023-01-07T13:03:04.839Z,3.57
2023-01-07T13:05:40.185Z,2.17
2023-01-07T13:08:15.753Z,3.43
2023-01-07T13:10:56.112Z,5.80
2023-01-07T13:13:32.150Z,5.37
2023-01-07T13:16:00.293Z,5.70
2023-01-07T13:18:30.718Z,3.00
2023-01-07T13:21:06.632Z,3.20
2023-01-07T13:23:49.727Z,4.13
2023-01-07T13:26:30.874Z,2.13
2023-01-07T13:29:20.870Z,6.80
2023-01-07T13:32:28.576Z,3.97
2023-01-07T13:35:24.460Z,2.10
2023-01-07T13:38:07.935Z,2.43
2023-01-07T13:41:01.406Z,4.03
2023-01-07T13:43:46.690Z,4.60
2023-01-07T13:46:28.468Z,2.50
2023-01-07T13:48:56.661Z,1.73
2023-01-07T13:51:29.770Z,3.20
2023-01-07T13:53:57.867Z,3.80
2023-01-07T13:56:38.852Z,25.20
2023-01-07T13:59:29.797Z,22.53
2023-01-07T14:02:19.365Z,5.23
2023-01-07T14:05:05.875Z,2.70
2023-01-07T14:07:45.849Z,2.47
2023-01-07T14:10:26.730Z,6.67
2023-01-07T14:13:20.141Z,2.90
2023-01-07T14:16:16.699Z,3.40
2023-01-07T14:19:12.094Z,6.13
2023-01-07T14:22:07.725Z,3.13
2023-01-07T14:25:01.218Z,3.00
2023-01-07T14:27:52.604Z,3.73
2023-01-07T14:30:32.446Z,3.70
2023-01-07T14:33:02.608Z,9.17
2023-01-07T14:35:35.350Z,3.90
2023-01-07T14:38:03.565Z,3.27
2023-01-07T14:41:09.117Z,6.13
2023-01-07T14:44:08.942Z,4.77
2023-01-07T14:46:52.909Z,7.10
2023-01-07T14:49:56.204Z,4.07
2023-01-07T14:52:50.043Z,5.10
2023-01-07T14:55:42.969Z,4.10
2023-01-07T14:58:32.269Z,8.73
2023-01-07T15:01:34.367Z,7.93
2023-01-07T15:04:50.361Z,8.80
2023-01-07T15:07:21.296Z,6.87
2023-01-07T15:10:15.601Z,5.90
2023-01-07T15:13:07.109Z,6.70
2023-01-07T15:15:59.773Z,9.07
2023-01-07T15:18:29.343Z,10.67
2023-01-07T15:21:15.801Z,9.00
2023-01-07T15:23:52.479Z,12.70
2023-01-07T15:26:32.811Z,46.13
2023-01-07T15:29:10.194Z,40.03
2023-01-07T15:31:44.164Z,14.93
2023-01-07T15:34:13.749Z,10.60
2023-01-07T15:36:44.260Z,7.67
2023-01-07T15:39:23.055Z,9.70
2023-01-07T15:41:55.227Z,12.80
2023-01-07T15:44:28.371Z,8.67
2023-01-07T15:46:57.281Z,9.60
2023-01-07T15:49:26.356Z,7.70
2023-01-07T15:51:57.026Z,7.70
2023-01-07T15:54:32.931Z,5.37
2023-01-07T15:57:07.819Z,5.10
2023-01-07T15:59:38.898Z,4.40
2023-01-07T16:02:19.485Z,5.47
2023-01-07T16:04:49.260Z,5.43
2023-01-07T16:07:24.049Z,5.40
2023-01-07T16:09:52.850Z,5.93
2023-01-07T16:12:30.811Z,3.13
2023-01-07T16:14:59.069Z,3.20
2023-01-07T16:17:28.328Z,4.63
2023-01-07T16:20:20.110Z,4.77
2023-01-07T16:22:48.507Z,3.30
2023-01-07T16:25:23.709Z,4.93
2023-01-07T16:27:53.075Z,4.13
2023-01-07T16:30:21.119Z,7.83
2023-01-07T16:32:49.163Z,4.40
2023-01-07T16:35:21.808Z,4.10
2023-01-07T16:37:50.688Z,3.50
2023-01-07T16:40:31.172Z,3.90
2023-01-07T16:43:00.376Z,3.67
2023-01-07T16:45:30.765Z,3.13
2023-01-07T16:48:21.445Z,4.13
2023-01-07T16:50:50.888Z,3.17
2023-01-07T16:53:25.093Z,4.93
2023-01-07T16:55:55.247Z,3.83
2023-01-07T16:58:31.497Z,4.30
2023-01-07T17:01:03.295Z,6.10
2023-01-07T17:03:37.025Z,3.17
2023-01-07T17:06:07.239Z,3.47
2023-01-07T17:08:37.052Z,2.60
2023-01-07T17:11:09.169Z,2.87
2023-01-07T17:13:40.561Z,2.77
2023-01-07T17:16:30.456Z,3.93
2023-01-07T17:18:59.733Z,2.40
2023-01-07T17:21:38.681Z,5.90
2023-01-07T17:24:07.259Z,5.80
2023-01-07T17:26:40.730Z,3.37
2023-01-07T17:29:13.725Z,3.80
2023-01-07T17:31:41.652Z,3.87
2023-01-07T17:34:12.806Z,10.63
2023-01-07T17:36:40.600Z,6.10
2023-01-07T17:39:08.735Z,3.60
2023-01-07T17:41:56.240Z,5.43
2023-01-07T17:44:25.499Z,4.73
2023-01-07T17:46:53.405Z,24.60
2023-01-07T17:49:21.391Z,5.73
2023-01-07T17:51:49.982Z,4.43
2023-01-07T17:54:21.526Z,5.97
2023-01-07T17:56:49.987Z,5.90
2023-01-07T17:59:21.099Z,9.10
2023-01-07T18:01:51.809Z,7.43
2023-01-07T18:04:21.443Z,5.33
2023-01-07T18:06:49.190Z,6.37
2023-01-07T18:09:17.176Z,6.67
2023-01-07T18:12:04.467Z,11.03
2023-01-07T18:14:32.825Z,5.70
2023-01-07T18:17:02.247Z,12.20
2023-01-07T18:19:29.974Z,21.03
2023-01-07T18:21:57.923Z,22.17
2023-01-07T18:24:25.765Z,20.63
2023-01-07T18:26:56.258Z,12.67
2023-01-07T18:29:24.336Z,11.67
2023-01-07T18:31:52.084Z,8.83
2023-01-07T18:34:21.347Z,7.53
2023-01-07T18:36:49.257Z,4.07
2023-01-07T18:39:20.295Z,6.20
2023-01-07T18:41:50.178Z,6.97
2023-01-07T18:44:18.340Z,4.53
2023-01-07T18:46:46.061Z,5.40
2023-01-07T18:49:14.508Z,5.50
2023-01-07T18:51:43.936Z,5.90
2023-01-07T18:54:11.993Z,6.20
2023-01-07T18:56:39.842Z,5.90
2023-01-07T18:59:07.715Z,5.47
2023-01-07T19:01:35.654Z,7.07
2023-01-07T19:04:05.078Z,6.93
2023-01-07T19:06:33.279Z,10.00
2023-01-07T19:09:02.535Z,18.27
2023-01-07T19:11:31.417Z,6.40
2023-01-07T19:13:59.316Z,6.17
2023-01-07T19:16:27.210Z,5.67
2023-01-07T19:18:54.991Z,6.93
2023-01-07T19:21:22.744Z,8.13
2023-01-07T19:23:50.724Z,4.67
2023-01-07T19:26:20.922Z,12.00
2023-01-07T19:28:49.102Z,12.10
2023-01-07T19:31:17.033Z,7.57
2023-01-07T19:33:45.106Z,8.83
2023-01-07T19:36:16.419Z,6.53
2023-01-07T19:38:47.578Z,4.90
2023-01-07T19:41:17.454Z,9.73
2023-01-07T19:43:47.419Z,4.60
2023-01-07T19:46:16.775Z,6.57
2023-01-07T19:48:44.904Z,5.93
2023-01-07T19:51:13.189Z,4.87
2023-01-07T19:53:41.136Z,5.70
2023-01-07T19:56:10.956Z,7.10
2023-01-07T19:58:39.288Z,5.50
2023-01-07T20:01:11.369Z,4.83
2023-01-07T20:03:39.605Z,8.77
2023-01-07T20:06:09.854Z,7.00
2023-01-07T20:08:37.872Z,6.40
2023-01-07T20:11:06.775Z,10.57
2023-01-07T20:13:37.429Z,7.83
2023-01-07T20:16:06.392Z,27.50
2023-01-07T20:18:39.277Z,7.30
2023-01-07T20:21:07.628Z,6.50
2023-01-07T20:23:36.274Z,5.60
2023-01-07T20:26:04.802Z,7.77
2023-01-07T20:28:32.741Z,7.07
2023-01-07T20:31:00.977Z,6.77
2023-01-07T20:33:28.869Z,6.50
2023-01-07T20:36:02.518Z,8.63
2023-01-07T20:38:30.556Z,6.07
2023-01-07T20:40:58.629Z,8.03
2023-01-07T20:43:26.428Z,7.43
2023-01-07T20:45:59.652Z,6.13
2023-01-07T20:48:27.785Z,7.77
2023-01-07T20:50:56.019Z,11.03
2023-01-07T20:53:28.490Z,6.80
2023-01-07T20:56:00.219Z,6.23
2023-01-07T20:58:28.840Z,5.90
2023-01-07T21:00:56.861Z,5.43
2023-01-07T21:03:25.643Z,6.93
2023-01-07T21:05:57.440Z,5.60
2023-01-07T21:08:27.639Z,8.90
2023-01-07T21:10:55.813Z,7.20
2023-01-07T21:13:24.005Z,8.33
2023-01-07T21:15:52.201Z,8.30
2023-01-07T21:18:20.541Z,6.17
2023-01-07T21:20:48.573Z,5.53
2023-01-07T21:23:16.839Z,7.57
2023-01-07T21:25:49.353Z,5.87
2023-01-07T21:28:17.300Z,9.47
2023-01-07T21:30:45.916Z,5.83
2023-01-07T21:33:13.839Z,5.60
2023-01-07T21:35:42.573Z,5.50
2023-01-07T21:38:10.551Z,6.73
2023-01-07T21:40:39.768Z,9.37
2023-01-07T21:43:08.886Z,10.10
2023-01-07T21:45:40.455Z,5.33
2023-01-07T21:48:08.808Z,5.57
2023-01-07T21:50:36.754Z,6.00
2023-01-07T21:53:04.707Z,5.10
2023-01-07T21:55:32.529Z,4.20
2023-01-07T21:58:00.718Z,7.23
2023-01-07T22:00:29.855Z,5.73
2023-01-07T22:02:57.819Z,5.40
2023-01-07T22:05:25.765Z,6.70
2023-01-07T22:07:53.660Z,5.23
2023-01-07T22:10:21.492Z,4.63
2023-01-07T22:12:49.323Z,4.93
2023-01-07T22:15:17.429Z,4.23
2023-01-07T22:17:46.728Z,6.43
2023-01-07T22:20:14.511Z,4.60
2023-01-07T22:22:42.397Z,6.23
2023-01-07T22:25:10.951Z,4.93
2023-01-07T22:27:38.761Z,7.70
2023-01-07T22:30:08.338Z,5.63
2023-01-07T22:32:36.227Z,4.83
2023-01-07T22:35:06.068Z,6.30
2023-01-07T22:37:34.206Z,8.93
2023-01-07T22:40:04.296Z,5.87
2023-01-07T22:42:36.707Z,5.83
2023-01-07T22:45:09.812Z,4.80
2023-01-07T22:47:41.326Z,5.07
2023-01-07T22:50:11.364Z,11.83
2023-01-07T22:52:42.278Z,6.23
2023-01-07T22:55:13.097Z,7.17
2023-01-07T22:57:41.998Z,6.63
2023-01-07T23:00:16.735Z,5.53
2023-01-07T23:02:44.518Z,4.97
2023-01-07T23:05:13.825Z,7.17
2023-01-07T23:07:41.657Z,5.87
2023-01-07T23:10:10.219Z,5.27
2023-01-07T23:12:38.134Z,4.97
2023-01-07T23:15:06.904Z,8.50
2023-01-07T23:17:34.718Z,4.90
2023-01-07T23:20:02.547Z,9.70
2023-01-07T23:22:31.683Z,8.03
2023-01-07T23:24:59.473Z,9.33
2023-01-07T23:27:27.267Z,8.70
2023-01-07T23:29:55.016Z,5.93
2023-01-07T23:32:22.775Z,5.47
2023-01-07T23:34:50.560Z,9.17
2023-01-07T23:37:18.457Z,7.70
2023-01-07T23:39:47.860Z,6.57
2023-01-07T23:42:15.674Z,6.53
2023-01-07T23:44:43.401Z,8.23
2023-01-07T23:47:11.320Z,5.10
2023-01-07T23:49:39.173Z,4.97
2023-01-07T23:52:06.889Z,4.53
2023-01-07T23:54:34.704Z,4.77
2023-01-07T23:57:03.864Z,6.83
2023-01-07T23:59:31.663Z,6.30
